Time;durP1;ratioP1;P1;durP2;ratioP2;P2;SDS_P1;SDS_P2;PMS_P1;PMS_P2;Temp;Humidity;BMP_temperature;BMP_pressure;BME280_temperature;BME280_humidity;BME280_pressure;Samples;Min_cycle;Max_cycle;Signal;HPM_P1;HPM_P2
2021/04/17 00:00:35;;;;;;;4.77;4.37;;;7.00;42.20;;;;;;5047172;28;20215;-79
2021/04/17 00:03:02;;;;;;;5.22;4.82;;;7.00;42.80;;;;;;5049038;28;20488;-78
2021/04/17 00:05:29;;;;;;;4.78;4.18;;;7.00;41.60;;;;;;5047097;28;20441;-78
2021/04/17 00:07:56;;;;;;;4.80;4.40;;;6.90;40.70;;;;;;5059773;28;20261;-78
2021/04/17 00:10:23;;;;;;;5.07;4.57;;;6.90;42.50;;;;;;5052701;28;21389;-78
2021/04/17 00:12:51;;;;;;;7.80;5.00;;;7.00;42.70;;;;;;5063343;28;20200;-79
2021/04/17 00:15:19;;;;;;;7.13;4.63;;;7.00;43.80;;;;;;5058975;28;20468;-79
2021/04/17 00:17:46;;;;;;;5.18;4.50;;;7.00;43.90;;;;;;5054176;28;20213;-78
2021/04/17 00:20:15;;;;;;;5.37;4.40;;;6.90;44.00;;;;;;5060933;28;20208;-76
2021/04/17 00:22:42;;;;;;;5.53;5.00;;;6.90;43.80;;;;;;5051763;28;20471;-76
2021/04/17 00:25:10;;;;;;;4.80;4.40;;;6.90;43.30;;;;;;5048996;28;20227;-77
2021/04/17 00:27:37;;;;;;;5.20;4.75;;;6.90;43.70;;;;;;5046595;28;20202;-78
2021/04/17 00:30:07;;;;;;;5.55;4.57;;;7.10;45.10;;;;;;5054204;28;20208;-77
2021/04/17 00:32:34;;;;;;;6.13;5.47;;;6.90;45.90;;;;;;5053398;28;20246;-77
2021/04/17 00:35:02;;;;;;;4.80;4.32;;;7.10;47.40;;;;;;5054044;28;20366;-79
2021/04/17 00:37:29;;;;;;;5.30;4.90;;;6.80;49.10;;;;;;5046969;28;20208;-77
2021/04/17 00:39:56;;;;;;;8.80;6.95;;;7.10;50.60;;;;;;5043775;28;20216;-79
2021/04/17 00:42:23;;;;;;;14.25;7.47;;;6.80;51.60;;;;;;5060709;28;20223;-78
2021/04/17 00:44:51;;;;;;;9.05;6.25;;;6.80;51.60;;;;;;5049617;28;20240;-77
2021/04/17 00:47:19;;;;;;;5.75;4.85;;;6.80;50.40;;;;;;5051474;28;20206;-80
2021/04/17 00:49:59;;;;;;;5.55;5.00;;;6.80;50.50;;;;;;5058393;28;20223;-80
2021/04/17 00:52:27;;;;;;;5.40;4.93;;;6.80;50.20;;;;;;5051976;28;20219;-81
2021/04/17 00:54:54;;;;;;;6.77;6.07;;;6.70;51.60;;;;;;5057133;28;20221;-77
2021/04/17 00:57:22;;;;;;;6.07;4.65;;;6.70;52.20;;;;;;5054874;28;20473;-81
2021/04/17 00:59:49;;;;;;;6.88;5.28;;;6.80;52.20;;;;;;5053565;28;20217;-79
2021/04/17 01:02:24;;;;;;;6.38;5.30;;;6.80;69.90;;;;;;5047556;28;20208;-80
2021/04/17 01:04:53;;;;;;;7.00;6.07;;;6.80;53.90;;;;;;5049566;28;20222;-80
2021/04/17 01:07:25;;;;;;;7.63;6.10;;;6.80;54.30;;;;;;5044074;28;20208;-79
2021/04/17 01:10:01;;;;;;;6.38;5.20;;;6.70;54.50;;;;;;5045737;28;20256;-79
2021/04/17 01:12:31;;;;;;;7.72;5.25;;;6.70;55.00;;;;;;5051997;28;20262;-78
2021/04/17 01:14:59;;;;;;;5.72;5.20;;;6.70;52.40;;;;;;5048557;28;20231;-79
2021/04/17 01:17:27;;;;;;;5.63;4.03;;;6.70;54.40;;;;;;5048583;28;20212;-79
2021/04/17 01:20:04;;;;;;;6.05;5.40;;;6.80;53.20;;;;;;5047280;28;20209;-80
2021/04/17 01:22:32;;;;;;;7.00;5.68;;;6.80;53.10;;;;;;5061078;28;20662;-79
2021/04/17 01:25:08;;;;;;;5.53;5.03;;;6.80;51.30;;;;;;5046508;28;20230;-77
2021/04/17 01:27:37;;;;;;;7.53;6.17;;;6.80;52.60;;;;;;5051262;28;20474;-79
2021/04/17 01:30:09;;;;;;;6.68;4.88;;;6.80;53.50;;;;;;5050103;28;21120;-76
2021/04/17 01:32:37;;;;;;;6.55;5.13;;;6.70;57.50;;;;;;5055413;28;20213;-78
2021/04/17 01:35:07;;;;;;;6.15;5.10;;;6.70;59.50;;;;;;5046482;28;20221;-78
2021/04/17 01:38:04;;;;;;;6.20;5.20;;;6.60;61.20;;;;;;5055111;28;20600;-78
2021/04/17 01:40:34;;;;;;;5.65;5.07;;;6.60;60.30;;;;;;5058525;28;20210;-77
2021/04/17 01:43:02;;;;;;;6.80;5.50;;;6.60;60.40;;;;;;5057200;28;20397;-78
2021/04/17 01:45:31;;;;;;;10.35;6.45;;;6.60;61.20;;;;;;5050293;28;20232;-77
2021/04/17 01:48:01;;;;;;;6.57;4.60;;;6.60;60.20;;;;;;5056278;28;20949;-79
2021/04/17 01:50:31;;;;;;;5.50;4.68;;;6.60;65.20;;;;;;5061803;28;20243;-77
2021/04/17 01:53:01;;;;;;;7.07;5.07;;;6.60;67.30;;;;;;5052808;28;20206;-78
2021/04/17 01:55:32;;;;;;;5.55;4.85;;;6.60;69.80;;;;;;5050694;28;20671;-76
2021/04/17 01:58:02;;;;;;;5.90;5.30;;;6.60;70.50;;;;;;5046727;28;20210;-78
2021/04/17 02:00:33;;;;;;;8.93;5.60;;;6.60;72.60;;;;;;5057142;28;20677;-78
2021/04/17 02:03:01;;;;;;;6.90;5.90;;;6.60;75.00;;;;;;5050023;28;20235;-80
2021/04/17 02:05:28;;;;;;;6.55;5.85;;;6.50;77.40;;;;;;5050628;28;20224;-80
2021/04/17 02:07:57;;;;;;;9.88;5.57;;;6.50;79.70;;;;;;5051552;28;20211;-80
2021/04/17 02:10:25;;;;;;;6.93;6.10;;;6.50;81.20;;;;;;5055881;28;20206;-79
2021/04/17 02:12:52;;;;;;;6.75;5.30;;;6.50;81.30;;;;;;5057023;28;20218;-80
2021/04/17 02:15:20;;;;;;;6.65;5.25;;;6.50;83.90;;;;;;5053428;28;20220;-79
2021/04/17 02:17:53;;;;;;;7.72;6.55;;;6.50;87.80;;;;;;5053051;28;20213;-79
2021/04/17 02:20:27;;;;;;;7.18;6.03;;;6.50;86.30;;;;;;5045043;28;20286;-78
2021/04/17 02:22:55;;;;;;;7.07;5.57;;;6.50;86.30;;;;;;5045016;28;20206;-79
2021/04/17 02:25:22;;;;;;;9.15;6.97;;;6.40;93.30;;;;;;5041379;28;20221;-79
2021/04/17 02:27:50;;;;;;;8.57;5.93;;;6.50;94.30;;;;;;5048795;28;20611;-79
2021/04/17 02:30:18;;;;;;;7.75;6.20;;;6.50;93.50;;;;;;5041477;28;20222;-80
2021/04/17 02:32:47;;;;;;;6.60;5.90;;;6.40;91.90;;;;;;5057881;28;20210;-80
2021/04/17 02:35:15;;;;;;;8.07;6.40;;;6.60;90.20;;;;;;5032321;28;619089;-78
2021/04/17 02:37:43;;;;;;;8.90;6.80;;;6.50;86.70;;;;;;5048912;28;20476;-81
2021/04/17 02:40:10;;;;;;;6.10;5.50;;;6.50;85.30;;;;;;5053974;28;20217;-79
2021/04/17 02:42:38;;;;;;;8.05;7.20;;;6.60;82.50;;;;;;5053974;28;20460;-76
2021/04/17 02:45:06;;;;;;;6.25;5.63;;;6.80;80.90;;;;;;5039835;28;20225;-74
2021/04/17 02:47:33;;;;;;;9.13;6.35;;;6.60;76.60;;;;;;5043333;28;20204;-74
2021/04/17 02:50:01;;;;;;;6.97;5.05;;;6.40;76.00;;;;;;5046333;28;20257;-75
2021/04/17 02:52:28;;;;;;;8.02;6.38;;;6.60;76.10;;;;;;5043781;28;20838;-76
2021/04/17 02:54:56;;;;;;;6.95;5.55;;;6.60;75.00;;;;;;5042478;28;20225;-77
2021/04/17 02:57:23;;;;;;;6.20;5.45;;;6.40;81.60;;;;;;5044265;28;20958;-76
2021/04/17 02:59:51;;;;;;;9.13;5.65;;;6.40;81.50;;;;;;5052559;28;20203;-76
2021/04/17 03:02:18;;;;;;;7.50;6.15;;;6.40;82.40;;;;;;5050377;28;20223;-76
2021/04/17 03:04:45;;;;;;;7.95;6.32;;;6.40;83.20;;;;;;5054627;28;20585;-77
2021/04/17 03:07:13;;;;;;;7.80;6.47;;;6.50;85.00;;;;;;5048616;28;20685;-76
2021/04/17 03:09:41;;;;;;;9.25;7.18;;;6.50;85.20;;;;;;5049443;28;20225;-76
2021/04/17 03:12:09;;;;;;;10.13;6.28;;;6.50;89.40;;;;;;5051221;28;20932;-76
2021/04/17 03:14:37;;;;;;;7.82;5.00;;;6.50;97.70;;;;;;5047744;28;20228;-77
2021/04/17 03:17:04;;;;;;;7.20;5.93;;;6.40;88.30;;;;;;5057265;28;20239;-76
2021/04/17 03:19:32;;;;;;;6.10;5.50;;;6.40;87.50;;;;;;5056998;28;20234;-76
2021/04/17 03:21:59;;;;;;;7.55;5.63;;;6.40;91.00;;;;;;5052443;28;20912;-76
2021/04/17 03:24:27;;;;;;;10.63;6.95;;;6.30;92.90;;;;;;5049839;28;20748;-75
2021/04/17 03:26:54;;;;;;;8.38;6.85;;;6.30;93.60;;;;;;5054935;28;20209;-76
2021/04/17 03:29:21;;;;;;;7.93;6.70;;;6.30;94.80;;;;;;5054501;28;20247;-75
2021/04/17 03:31:48;;;;;;;11.43;6.50;;;6.30;94.90;;;;;;5053411;28;20208;-73
2021/04/17 03:34:16;;;;;;;9.23;6.30;;;6.60;95.20;;;;;;5047183;28;20239;-76
2021/04/17 03:36:43;;;;;;;7.30;6.03;;;6.40;95.10;;;;;;5054098;28;20220;-77
2021/04/17 03:39:11;;;;;;;7.22;5.97;;;6.40;95.10;;;;;;5057302;28;20217;-76
2021/04/17 03:41:39;;;;;;;8.55;6.78;;;6.30;95.10;;;;;;5056963;28;20221;-77
2021/04/17 03:44:06;;;;;;;10.02;7.60;;;6.40;95.20;;;;;;5058778;28;20284;-76
2021/04/17 03:46:33;;;;;;;10.70;7.05;;;6.40;95.60;;;;;;5054886;28;20216;-76
2021/04/17 03:49:01;;;;;;;8.27;6.93;;;6.40;95.00;;;;;;5058115;28;20968;-76
2021/04/17 03:51:28;;;;;;;7.63;6.68;;;6.40;94.80;;;;;;5062213;28;20208;-76
2021/04/17 03:53:56;;;;;;;8.52;7.60;;;6.40;94.90;;;;;;5059591;28;20231;-76
2021/04/17 03:56:23;;;;;;;10.80;7.80;;;6.60;95.40;;;;;;5047976;28;20213;-76
2021/04/17 03:58:51;;;;;;;10.85;7.65;;;6.40;95.10;;;;;;5046744;28;20213;-76
2021/04/17 04:01:18;;;;;;;8.45;6.28;;;6.30;95.00;;;;;;5051879;28;20257;-76
2021/04/17 04:03:45;;;;;;;8.50;6.95;;;6.40;95.70;;;;;;5045930;28;20312;-77
2021/04/17 04:06:12;;;;;;;11.50;7.97;;;6.30;96.00;;;;;;5055269;28;20229;-76
2021/04/17 04:08:39;;;;;;;9.70;7.05;;;6.30;96.00;;;;;;5059260;28;20458;-75
2021/04/17 04:11:07;;;;;;;9.05;7.35;;;6.20;95.10;;;;;;5057063;28;22001;-77
2021/04/17 04:13:34;;;;;;;8.57;7.65;;;6.20;94.90;;;;;;5061464;28;20249;-77
2021/04/17 04:16:02;;;;;;;11.07;7.88;;;6.20;97.80;;;;;;5048575;28;20214;-76
2021/04/17 04:18:29;;;;;;;9.65;8.50;;;6.20;99.90;;;;;;5058765;28;20208;-76
2021/04/17 04:20:57;;;;;;;9.10;8.15;;;6.20;99.90;;;;;;5061190;28;20214;-77
2021/04/17 04:23:24;;;;;;;9.20;8.10;;;6.20;99.90;;;;;;5054454;28;20239;-76
2021/04/17 04:25:51;;;;;;;8.70;7.53;;;6.20;99.90;;;;;;5058913;28;20646;-76
2021/04/17 04:28:19;;;;;;;11.18;8.68;;;6.10;99.90;;;;;;5049064;28;20234;-77
2021/04/17 04:30:47;;;;;;;9.45;8.45;;;6.10;99.90;;;;;;5060905;28;20582;-75
2021/04/17 04:33:15;;;;;;;8.82;7.38;;;6.10;99.90;;;;;;5049574;28;20319;-77
2021/04/17 04:35:42;;;;;;;13.05;10.07;;;6.10;99.90;;;;;;5052442;28;20212;-78
2021/04/17 04:38:10;;;;;;;8.85;7.55;;;6.00;99.90;;;;;;5045856;28;20242;-76
2021/04/17 04:40:37;;;;;;;11.00;9.07;;;6.00;99.90;;;;;;5054450;28;20238;-76
2021/04/17 04:43:04;;;;;;;10.05;8.27;;;5.90;99.90;;;;;;5050263;28;20239;-76
2021/04/17 04:45:31;;;;;;;11.15;9.10;;;5.90;99.90;;;;;;5054282;28;20234;-78
2021/04/17 04:47:59;;;;;;;10.07;7.88;;;6.00;99.90;;;;;;5060387;28;20210;-78
2021/04/17 04:50:27;;;;;;;10.98;9.10;;;6.00;99.90;;;;;;5048211;28;20217;-77
2021/04/17 04:52:54;;;;;;;10.52;9.38;;;6.10;99.90;;;;;;5052589;28;20210;-77
2021/04/17 04:55:21;;;;;;;9.23;8.32;;;6.00;99.90;;;;;;5053635;28;20289;-78
2021/04/17 04:57:48;;;;;;;11.45;8.82;;;6.10;99.90;;;;;;5057433;28;20204;-76
2021/04/17 05:00:17;;;;;;;13.20;9.60;;;6.10;99.90;;;;;;5052006;28;20204;-75
2021/04/17 05:02:44;;;;;;;11.40;10.15;;;6.10;99.90;;;;;;5048611;28;20291;-76
2021/04/17 05:05:12;;;;;;;11.90;10.68;;;6.20;99.90;;;;;;5051671;28;20298;-77
2021/04/17 05:07:40;;;;;;;11.07;9.98;;;6.20;99.90;;;;;;5059612;28;20742;-76
2021/04/17 05:10:08;;;;;;;14.90;9.60;;;6.20;99.90;;;;;;5060132;28;20200;-77
2021/04/17 05:12:35;;;;;;;12.60;10.43;;;6.20;99.90;;;;;;5054421;28;20271;-77
2021/04/17 05:15:04;;;;;;;10.43;9.30;;;6.20;99.90;;;;;;5054973;28;20250;-75
2021/04/17 05:17:31;;;;;;;11.63;8.70;;;6.20;99.90;;;;;;5053373;28;20206;-77
2021/04/17 05:19:59;;;;;;;9.55;8.30;;;6.10;99.90;;;;;;5047289;28;20203;-75
2021/04/17 05:22:26;;;;;;;11.05;8.25;;;6.10;99.90;;;;;;5055307;28;20204;-78
2021/04/17 05:24:54;;;;;;;9.15;7.38;;;6.20;99.90;;;;;;5052179;28;20309;-76
2021/04/17 05:27:21;;;;;;;9.15;8.00;;;6.10;99.90;;;;;;5050032;28;20222;-74
2021/04/17 05:29:48;;;;;;;9.88;8.07;;;6.10;99.90;;;;;;5057370;28;20219;-77
2021/04/17 05:32:15;;;;;;;7.68;6.97;;;6.10;99.90;;;;;;5055325;28;20196;-77
2021/04/17 05:34:43;;;;;;;8.65;7.15;;;6.10;99.90;;;;;;5054174;28;20752;-76
2021/04/17 05:37:10;;;;;;;10.82;8.13;;;6.20;99.90;;;;;;5054568;28;20269;-76
2021/04/17 05:39:37;;;;;;;11.27;8.18;;;6.10;99.90;;;;;;5048589;28;20220;-76
2021/04/17 05:42:07;;;;;;;9.68;7.25;;;6.20;99.90;;;;;;5053473;28;20215;-76
2021/04/17 05:44:34;;;;;;;10.88;8.35;;;6.20;99.90;;;;;;5051422;28;20230;-74
2021/04/17 05:47:01;;;;;;;11.60;8.73;;;6.20;99.90;;;;;;5049770;28;20217;-77
2021/04/17 05:49:29;;;;;;;9.45;8.07;;;6.20;99.90;;;;;;5053610;28;20207;-76
2021/04/17 05:51:56;;;;;;;9.10;7.63;;;6.20;99.90;;;;;;5040020;28;20293;-76
2021/04/17 05:54:23;;;;;;;11.48;9.07;;;6.10;99.90;;;;;;5050309;28;20288;-77
2021/04/17 05:56:50;;;;;;;9.98;7.70;;;6.10;99.90;;;;;;5052486;28;20226;-75
2021/04/17 05:59:18;;;;;;;11.57;9.70;;;6.20;99.90;;;;;;5049907;28;20209;-76
2021/04/17 06:01:45;;;;;;;10.52;8.57;;;6.10;99.90;;;;;;5044858;28;20278;-77
2021/04/17 06:04:13;;;;;;;10.02;8.77;;;6.00;99.90;;;;;;5054880;28;20234;-75
2021/04/17 06:06:41;;;;;;;16.45;8.75;;;6.30;99.90;;;;;;5057247;28;20581;-75
2021/04/17 06:09:08;;;;;;;8.45;7.55;;;6.30;99.90;;;;;;5058691;28;20634;-73
2021/04/17 06:11:36;;;;;;;9.15;8.15;;;6.30;99.90;;;;;;5050647;28;20295;-75
2021/04/17 06:14:03;;;;;;;10.23;8.15;;;6.40;99.90;;;;;;5057750;28;20841;-76
2021/04/17 06:16:31;;;;;;;11.43;10.02;;;6.50;99.90;;;;;;5040176;28;20461;-76
2021/04/17 06:19:05;;;;;;;10.13;9.07;;;6.50;99.90;;;;;;5046954;28;20209;-78
2021/04/17 06:21:34;;;;;;;10.55;9.35;;;6.60;99.90;;;;;;5044949;28;20802;-75
2021/04/17 06:24:01;;;;;;;9.75;8.75;;;6.60;99.90;;;;;;5053068;28;20232;-76
2021/04/17 06:26:28;;;;;;;15.75;11.20;;;6.90;99.90;;;;;;5041263;28;20228;-76
2021/04/17 06:28:55;;;;;;;12.52;10.13;;;6.70;99.90;;;;;;5038190;28;20921;-77
2021/04/17 06:31:23;;;;;;;9.88;8.80;;;6.80;99.90;;;;;;5049672;28;20740;-77
2021/04/17 06:33:51;;;;;;;14.32;12.63;;;6.80;99.90;;;;;;5039166;28;20473;-77
2021/04/17 06:36:18;;;;;;;13.90;12.25;;;6.80;99.90;;;;;;5044614;28;20475;-76
2021/04/17 06:38:45;;;;;;;13.83;11.63;;;6.70;99.90;;;;;;5046738;28;20268;-75
2021/04/17 06:41:13;;;;;;;11.37;10.17;;;6.90;99.90;;;;;;5057277;28;20468;-75
2021/04/17 06:43:43;;;;;;;13.05;10.13;;;6.90;99.90;;;;;;5052152;28;20491;-75
2021/04/17 06:46:13;;;;;;;13.23;9.77;;;7.00;99.90;;;;;;5057475;28;20221;-74
2021/04/17 06:48:41;;;;;;;13.27;10.88;;;7.00;99.90;;;;;;5040175;28;20557;-76
2021/04/17 06:51:15;;;;;;;12.23;9.98;;;7.00;99.90;;;;;;5057894;28;20205;-76
2021/04/17 06:53:43;;;;;;;11.45;10.25;;;7.10;99.90;;;;;;5054783;28;20740;-76
2021/04/17 06:56:11;;;;;;;16.63;10.18;;;7.30;99.90;;;;;;5047036;28;20227;-76
2021/04/17 06:58:40;;;;;;;15.48;9.82;;;7.20;99.90;;;;;;5043043;28;20306;-77
2021/04/17 07:01:08;;;;;;;14.30;11.07;;;7.40;99.90;;;;;;5045640;28;20228;-76
2021/04/17 07:03:35;;;;;;;13.53;10.73;;;7.30;99.90;;;;;;5047733;28;20294;-76
2021/04/17 07:06:03;;;;;;;12.02;9.80;;;7.40;99.90;;;;;;5051495;28;20485;-74
2021/04/17 07:08:31;;;;;;;16.07;12.20;;;7.50;99.90;;;;;;5040904;28;20201;-72
2021/04/17 07:11:00;;;;;;;12.13;9.87;;;7.60;99.90;;;;;;5039833;28;20457;-76
2021/04/17 07:13:27;;;;;;;12.00;9.43;;;7.70;99.90;;;;;;5041691;28;20878;-75
2021/04/17 07:16:05;;;;;;;15.03;11.27;;;7.80;99.90;;;;;;5049502;28;20455;-75
2021/04/17 07:18:34;;;;;;;11.70;10.33;;;7.80;99.90;;;;;;5060699;28;21057;-77
2021/04/17 07:21:23;;;;;;;12.53;10.30;;;7.90;99.90;;;;;;5059252;28;20472;-77
2021/04/17 07:23:51;;;;;;;12.57;9.00;;;8.10;99.90;;;;;;5058459;28;20485;-77
2021/04/17 07:26:20;;;;;;;16.10;9.90;;;8.10;99.90;;;;;;5051050;28;20482;-78
2021/04/17 07:29:00;;;;;;;14.80;10.37;;;8.40;99.90;;;;;;5046163;28;20930;-78
2021/04/17 07:31:28;;;;;;;14.33;10.17;;;8.20;99.90;;;;;;5040972;28;20455;-79
2021/04/17 07:33:57;;;;;;;15.93;11.37;;;8.30;99.90;;;;;;5045375;28;20504;-78
2021/04/17 07:36:47;;;;;;;13.63;9.33;;;8.40;99.90;;;;;;5044850;28;20458;-78
2021/04/17 07:39:31;;;;;;;11.85;9.80;;;8.50;99.90;;;;;;5043968;28;20466;-78
2021/04/17 07:42:01;;;;;;;12.50;10.70;;;8.20;99.90;;;;;;5045037;28;20692;-77
2021/04/17 07:44:34;;;;;;;11.93;9.37;;;8.60;99.90;;;;;;5044586;28;20493;-77
2021/04/17 07:47:01;;;;;;;11.67;9.70;;;8.80;99.90;;;;;;5048064;28;20473;-77
2021/04/17 07:49:29;;;;;;;12.17;10.10;;;8.90;99.90;;;;;;5044778;28;21026;-78
2021/04/17 07:51:59;;;;;;;13.73;10.40;;;9.20;99.90;;;;;;5044032;28;20475;-76
2021/04/17 07:54:29;;;;;;;14.37;8.40;;;9.40;99.90;;;;;;5043810;28;20485;-76
2021/04/17 07:56:56;;;;;;;10.67;8.60;;;9.50;99.90;;;;;;5039922;28;20474;-78
2021/04/17 07:59:25;;;;;;;11.10;8.03;;;9.60;99.90;;;;;;5038033;28;20465;-78
2021/04/17 08:01:53;;;;;;;8.20;7.40;;;9.60;96.20;;;;;;5036430;28;20529;-79
2021/04/17 08:04:25;;;;;;;8.87;7.47;;;9.60;94.60;;;;;;5041942;28;20529;-79
2021/04/17 08:06:54;;;;;;;9.63;7.37;;;9.70;94.70;;;;;;5045550;28;20533;-78
2021/04/17 08:09:22;;;;;;;10.67;8.10;;;9.70;92.30;;;;;;5039959;28;20472;-78
2021/04/17 08:11:52;;;;;;;8.53;7.00;;;10.00;88.60;;;;;;5046560;28;20488;-78
2021/04/17 08:14:22;;;;;;;7.93;6.50;;;9.90;88.80;;;;;;5043808;28;20485;-78
2021/04/17 08:16:50;;;;;;;6.17;5.57;;;9.90;82.80;;;;;;5046255;28;20459;-77
2021/04/17 08:19:19;;;;;;;9.23;7.10;;;10.00;77.30;;;;;;5040260;28;20589;-78
2021/04/17 08:21:48;;;;;;;7.65;5.90;;;10.10;71.00;;;;;;5046768;28;20446;-81
2021/04/17 08:24:22;;;;;;;9.47;7.83;;;10.20;71.60;;;;;;5047401;28;20981;-79
2021/04/17 08:26:53;;;;;;;7.60;6.07;;;10.20;66.00;;;;;;5045824;28;20538;-77
2021/04/17 08:29:57;;;;;;;7.40;5.77;;;10.20;65.30;;;;;;5042727;28;20975;-76
2021/04/17 08:32:30;;;;;;;9.77;6.28;;;10.30;63.10;;;;;;5042769;28;20454;-80
2021/04/17 08:35:12;;;;;;;6.30;5.70;;;10.40;61.40;;;;;;5036261;28;20273;-76
2021/04/17 08:38:04;;;;;;;6.73;5.87;;;10.50;81.30;;;;;;5045252;28;20456;-81
2021/04/17 08:40:45;;;;;;;6.80;5.30;;;10.50;55.90;;;;;;5043386;28;20539;-77
2021/04/17 08:43:32;;;;;;;5.70;5.10;;;10.50;52.20;;;;;;5045331;28;20237;-77
2021/04/17 08:46:14;;;;;;;8.20;6.13;;;10.50;46.40;;;;;;5044534;28;20484;-82
2021/04/17 08:48:55;;;;;;;7.47;6.33;;;10.50;46.70;;;;;;5044668;28;21033;-84
2021/04/17 08:51:27;;;;;;;10.37;6.37;;;10.40;40.90;;;;;;5059619;28;20461;-83
2021/04/17 08:54:13;;;;;;;7.63;5.73;;;10.40;43.00;;;;;;5050702;28;20889;-80
2021/04/17 08:56:49;;;;;;;5.30;4.80;;;10.40;42.60;;;;;;5046012;28;20983;-78
2021/04/17 08:59:22;;;;;;;6.20;5.60;;;10.50;42.80;;;;;;5054587;28;20465;-82
2021/04/17 09:01:51;;;;;;;6.97;4.70;;;10.50;40.40;;;;;;5057247;28;20529;-82
2021/04/17 09:04:21;;;;;;;6.20;5.60;;;10.60;41.50;;;;;;5053032;28;20511;-82
2021/04/17 09:06:49;;;;;;;4.63;4.10;;;10.60;40.30;;;;;;5054552;28;20556;-80
2021/04/17 09:09:24;;;;;;;4.40;4.00;;;10.60;36.50;;;;;;5049233;28;20452;-79
2021/04/17 09:11:52;;;;;;;4.17;3.80;;;10.60;33.10;;;;;;5056991;28;20205;-77
2021/04/17 09:14:53;;;;;;;7.50;4.87;;;10.50;28.10;;;;;;5055044;28;20822;-79
2021/04/17 09:17:50;;;;;;;6.70;5.47;;;10.60;27.40;;;;;;5052254;28;20529;-80
2021/04/17 09:20:39;;;;;;;5.70;5.10;;;10.60;30.00;;;;;;5057569;28;20462;-80
2021/04/17 09:23:07;;;;;;;5.73;4.40;;;10.60;34.30;;;;;;5047636;28;20225;-79
2021/04/17 09:25:43;;;;;;;7.03;4.37;;;10.70;33.70;;;;;;5050674;28;20490;-79
2021/04/17 09:28:12;;;;;;;7.07;4.93;;;10.80;33.20;;;;;;5052903;28;20552;-81
2021/04/17 09:30:41;;;;;;;4.60;3.43;;;10.90;33.70;;;;;;5053211;28;20516;-79
2021/04/17 09:33:08;;;;;;;35.63;16.03;;;10.90;28.90;;;;;;5045595;28;20489;-81
2021/04/17 09:35:38;;;;;;;7.60;4.17;;;11.00;25.00;;;;;;5044001;28;20471;-78
2021/04/17 09:38:14;;;;;;;4.20;3.03;;;11.00;24.80;;;;;;5044983;28;21402;-79
2021/04/17 09:40:47;;;;;;;3.63;2.70;;;11.00;24.70;;;;;;5057872;28;20467;-78
2021/04/17 09:43:24;;;;;;;5.20;3.60;;;11.10;22.90;;;;;;5049478;28;20489;-78
2021/04/17 09:45:52;;;;;;;6.95;3.60;;;11.00;20.90;;;;;;5050893;28;20442;-77
2021/04/17 09:48:21;;;;;;;11.73;3.43;;;11.10;21.50;;;;;;5049793;28;20205;-77
2021/04/17 09:50:50;;;;;;;4.83;4.20;;;10.90;20.00;;;;;;5046223;28;20533;-77
2021/04/17 09:53:21;;;;;;;3.33;2.83;;;11.00;20.20;;;;;;5055798;28;20480;-76
2021/04/17 09:55:50;;;;;;;5.70;3.43;;;11.00;23.00;;;;;;5064547;28;20451;-81
2021/04/17 09:58:26;;;;;;;4.90;3.87;;;11.10;23.10;;;;;;5055171;28;20473;-79
2021/04/17 10:00:54;;;;;;;4.00;3.67;;;11.20;24.10;;;;;;5050341;28;20487;-82
2021/04/17 10:03:30;;;;;;;5.03;3.50;;;11.30;24.20;;;;;;5039634;28;20474;-78
2021/04/17 10:05:58;;;;;;;5.35;4.60;;;11.30;22.50;;;;;;5052265;28;21361;-77
2021/04/17 10:08:30;;;;;;;6.10;3.93;;;11.30;23.50;;;;;;5035659;28;20220;-79
2021/04/17 10:10:59;;;;;;;6.03;4.63;;;11.30;23.90;;;;;;5055278;28;20568;-77
2021/04/17 10:13:43;;;;;;;4.53;4.00;;;11.30;23.40;;;;;;5057016;28;20485;-78
2021/04/17 10:16:15;;;;;;;4.70;3.10;;;11.20;20.10;;;;;;5045076;28;20515;-76
2021/04/17 10:18:45;;;;;;;7.23;4.77;;;11.10;17.50;;;;;;5039667;28;20530;-79
2021/04/17 10:21:13;;;;;;;3.30;3.00;;;11.10;18.00;;;;;;5040079;28;20467;-77
2021/04/17 10:23:40;;;;;;;6.10;3.40;;;11.10;18.60;;;;;;5047902;28;20476;-79
2021/04/17 10:26:09;;;;;;;5.33;4.17;;;11.10;18.40;;;;;;5043702;28;21030;-81
2021/04/17 10:28:38;;;;;;;8.00;4.93;;;11.10;18.80;;;;;;5046881;28;20487;-80
2021/04/17 10:31:18;;;;;;;6.60;4.27;;;11.10;31.50;;;;;;5046165;28;20479;-82
2021/04/17 10:33:48;;;;;;;5.37;3.90;;;11.10;20.90;;;;;;5047027;28;20485;-81
2021/04/17 10:36:21;;;;;;;7.87;3.60;;;11.10;17.90;;;;;;5054386;28;20463;-81
2021/04/17 10:38:49;;;;;;;5.00;3.63;;;11.10;18.10;;;;;;5061759;28;20710;-81
2021/04/17 10:41:30;;;;;;;5.93;4.60;;;11.00;16.30;;;;;;5061726;28;20461;-82
2021/04/17 10:44:11;;;;;;;4.97;3.10;;;11.00;16.00;;;;;;5053801;28;20496;-82
2021/04/17 10:46:43;;;;;;;7.63;4.30;;;11.00;15.30;;;;;;5049557;28;20481;-80
2021/04/17 10:49:11;;;;;;;4.97;3.77;;;11.00;15.10;;;;;;5068067;28;20483;-81
2021/04/17 10:51:42;;;;;;;6.80;4.47;;;11.00;15.80;;;;;;5053826;28;20483;-82
2021/04/17 10:54:09;;;;;;;4.50;3.83;;;11.10;17.30;;;;;;5050029;28;20461;-79
2021/04/17 10:56:36;;;;;;;4.97;4.10;;;11.10;18.70;;;;;;5049238;28;20194;-81
2021/04/17 10:59:05;;;;;;;4.13;3.60;;;11.20;18.20;;;;;;5068357;28;20466;-80
2021/04/17 11:01:37;;;;;;;6.63;4.67;;;11.30;17.90;;;;;;5066245;28;20487;-81
2021/04/17 11:04:06;;;;;;;3.83;3.53;;;11.20;16.40;;;;;;5051970;28;20486;-79
2021/04/17 11:06:35;;;;;;;4.28;3.88;;;11.20;15.30;;;;;;5048461;28;20464;-82
2021/04/17 11:09:09;;;;;;;6.82;5.20;;;11.20;15.10;;;;;;5055649;28;20459;-82
2021/04/17 11:11:37;;;;;;;4.90;4.40;;;11.60;14.90;;;;;;5053453;28;20240;-81
2021/04/17 11:14:06;;;;;;;4.10;3.73;;;11.40;14.10;;;;;;5049651;28;20510;-83
2021/04/17 11:16:38;;;;;;;6.60;4.77;;;11.50;14.80;;;;;;5057912;28;20439;-83
2021/04/17 11:19:22;;;;;;;4.23;3.00;;;11.40;13.50;;;;;;5056618;28;20474;-82
2021/04/17 11:22:05;;;;;;;5.10;3.73;;;11.30;13.90;;;;;;5052567;28;21109;-82
2021/04/17 11:24:32;;;;;;;4.87;3.33;;;11.30;12.80;;;;;;5047468;28;20843;-81
2021/04/17 11:27:00;;;;;;;5.27;3.90;;;11.30;12.80;;;;;;5052399;28;20488;-81
2021/04/17 11:29:28;;;;;;;4.30;3.73;;;11.30;13.50;;;;;;5047635;28;20452;-80
2021/04/17 11:31:56;;;;;;;4.17;3.30;;;11.40;14.80;;;;;;5053335;28;20469;-84
2021/04/17 11:34:25;;;;;;;3.63;3.07;;;11.50;14.60;;;;;;5048995;28;20497;-83
2021/04/17 11:36:53;;;;;;;3.13;2.90;;;11.50;14.50;;;;;;5049979;28;20471;-80
2021/04/17 11:39:20;;;;;;;4.37;3.20;;;11.50;26.60;;;;;;5050769;28;20460;-81
2021/04/17 11:41:47;;;;;;;4.23;3.83;;;11.60;17.90;;;;;;5054020;28;20472;-81
2021/04/17 11:44:14;;;;;;;6.90;3.63;;;11.70;15.60;;;;;;5051808;28;20555;-82
2021/04/17 11:46:42;;;;;;;3.60;3.30;;;11.80;14.50;;;;;;5067662;28;20474;-83
2021/04/17 11:49:09;;;;;;;3.87;3.53;;;11.90;15.50;;;;;;5040507;28;20456;-80
2021/04/17 11:51:37;;;;;;;3.60;2.50;;;12.00;18.70;;;;;;5053710;28;20458;-82
2021/04/17 11:54:04;;;;;;;3.03;2.70;;;12.00;16.20;;;;;;5048393;28;20479;-81
2021/04/17 11:56:31;;;;;;;4.83;3.70;;;12.10;16.60;;;;;;5045639;28;20446;-82
2021/04/17 11:58:59;;;;;;;3.30;3.00;;;12.20;19.60;;;;;;5053266;28;20454;-82
2021/04/17 12:01:29;;;;;;;3.33;3.03;;;12.30;23.30;;;;;;5054847;28;20482;-80
2021/04/17 12:03:56;;;;;;;3.60;2.60;;;12.40;18.40;;;;;;5053513;28;20559;-81
2021/04/17 12:06:27;;;;;;;4.00;2.73;;;12.30;15.90;;;;;;5057554;28;20508;-80
2021/04/17 12:08:55;;;;;;;3.70;2.20;;;12.30;14.60;;;;;;5047378;28;20910;-80
2021/04/17 12:11:23;;;;;;;3.47;2.30;;;12.40;15.60;;;;;;5049114;28;20468;-79
2021/04/17 12:13:55;;;;;;;3.47;2.47;;;12.40;16.80;;;;;;5055527;28;21241;-78
2021/04/17 12:16:22;;;;;;;2.57;1.83;;;12.50;16.80;;;;;;5053653;28;20449;-81
2021/04/17 12:18:49;;;;;;;3.67;2.30;;;12.50;16.20;;;;;;5059724;28;20592;-80
2021/04/17 12:21:17;;;;;;;3.80;2.53;;;12.50;17.30;;;;;;5052340;28;21042;-80
2021/04/17 12:23:44;;;;;;;5.40;2.97;;;12.50;14.70;;;;;;5047354;28;20486;-79
2021/04/17 12:26:12;;;;;;;3.10;2.80;;;12.50;15.10;;;;;;5063898;28;20907;-80
2021/04/17 12:28:39;;;;;;;2.63;2.27;;;12.50;16.00;;;;;;5055802;28;20659;-80
2021/04/17 12:31:07;;;;;;;4.03;2.27;;;12.50;13.60;;;;;;5054903;28;20469;-80
2021/04/17 12:33:34;;;;;;;2.00;1.90;;;12.40;10.70;;;;;;5048501;28;20580;-79
2021/04/17 12:36:02;;;;;;;3.13;2.33;;;12.30;10.90;;;;;;5053408;28;20573;-78
2021/04/17 12:38:30;;;;;;;2.53;2.33;;;12.30;10.70;;;;;;5049022;28;20696;-79
2021/04/17 12:40:57;;;;;;;3.17;2.63;;;12.30;10.30;;;;;;5053195;28;20467;-79
2021/04/17 12:43:25;;;;;;;5.30;3.07;;;12.30;11.80;;;;;;5058938;28;20485;-77
2021/04/17 12:45:52;;;;;;;3.33;2.43;;;12.30;12.50;;;;;;5045837;28;20567;-78
2021/04/17 12:48:20;;;;;;;3.20;2.40;;;12.20;9.50;;;;;;5059386;28;20488;-79
2021/04/17 12:50:49;;;;;;;3.40;2.37;;;12.10;9.10;;;;;;5060586;28;20473;-80
2021/04/17 12:53:16;;;;;;;2.87;2.23;;;12.20;9.80;;;;;;5057896;28;21011;-78
2021/04/17 12:55:52;;;;;;;4.90;2.50;;;12.20;9.50;;;;;;5061147;28;20450;-80
2021/04/17 12:58:20;;;;;;;12.07;7.60;;;12.20;10.80;;;;;;5052105;28;20466;-78
2021/04/17 13:00:49;;;;;;;2.37;2.17;;;12.30;10.50;;;;;;5053525;28;20446;-77
2021/04/17 13:03:17;;;;;;;4.13;2.63;;;12.30;7.90;;;;;;5054182;28;20811;-79